sensor_id;sensor_type;location;lat;lon;timestamp;pressure;altitude;pressure_sealevel;temperature;humidity
79118;BME280;68523;51.336;-0.846;2023-12-07T00:00:00;100445.0;;;5.10;97.4
79118;BME280;68523;51.336;-0.846;2023-12-07T00:03:00;100445.0;;;5.28;96.3
79118;BME280;68523;51.336;-0.846;2023-12-07T00:06:00;100445.0;;;5.18;96.9
79118;BME280;68523;51.336;-0.846;2023-12-07T00:09:00;100435.0;;;5.23;97.0
79118;BME280;68523;51.336;-0.846;2023-12-07T00:12:00;100435.0;;;5.26;96.6
79118;BME280;68523;51.336;-0.846;2023-12-07T00:15:00;100435.0;;;5.34;96.2
79118;BME280;68523;51.336;-0.846;2023-12-07T00:18:00;100435.0;;;5.33;96.5
79118;BME280;68523;51.336;-0.846;2023-12-07T00:21:01;100435.0;;;5.34;96.5
79118;BME280;68523;51.336;-0.846;2023-12-07T00:24:00;100435.0;;;5.36;96.5
79118;BME280;68523;51.336;-0.846;2023-12-07T00:27:00;100445.0;;;5.37;96.5
79118;BME280;68523;51.336;-0.846;2023-12-07T00:30:00;100445.0;;;5.44;95.9
79118;BME280;68523;51.336;-0.846;2023-12-07T00:33:00;100435.0;;;5.30;97.0
79118;BME280;68523;51.336;-0.846;2023-12-07T00:36:00;100425.0;;;5.36;96.6
79118;BME280;68523;51.336;-0.846;2023-12-07T00:39:00;100405.0;;;5.26;97.3
79118;BME280;68523;51.336;-0.846;2023-12-07T00:42:00;100395.0;;;5.43;96.4
79118;BME280;68523;51.336;-0.846;2023-12-07T00:45:00;100395.0;;;5.48;96.1
79118;BME280;68523;51.336;-0.846;2023-12-07T00:48:00;100385.0;;;5.50;96.1
79118;BME280;68523;51.336;-0.846;2023-12-07T00:51:00;100385.0;;;5.50;96.2
79118;BME280;68523;51.336;-0.846;2023-12-07T00:54:00;100385.0;;;5.51;96.2
79118;BME280;68523;51.336;-0.846;2023-12-07T00:57:00;100385.0;;;5.53;96.3
79118;BME280;68523;51.336;-0.846;2023-12-07T01:00:00;100385.0;;;5.53;96.2
79118;BME280;68523;51.336;-0.846;2023-12-07T01:03:00;100385.0;;;5.55;96.2
79118;BME280;68523;51.336;-0.846;2023-12-07T01:06:00;100385.0;;;5.56;95.9
79118;BME280;68523;51.336;-0.846;2023-12-07T01:09:00;100385.0;;;5.62;95.6
79118;BME280;68523;51.336;-0.846;2023-12-07T01:12:00;100385.0;;;5.60;95.8
79118;BME280;68523;51.336;-0.846;2023-12-07T01:15:00;100375.0;;;5.73;95.0
79118;BME280;68523;51.336;-0.846;2023-12-07T01:18:00;100385.0;;;5.71;95.0
79118;BME280;68523;51.336;-0.846;2023-12-07T01:21:00;100375.0;;;5.69;95.4
79118;BME280;68523;51.336;-0.846;2023-12-07T01:24:00;100365.0;;;5.69;95.3
79118;BME280;68523;51.336;-0.846;2023-12-07T01:27:00;100365.0;;;5.73;95.5
79118;BME280;68523;51.336;-0.846;2023-12-07T01:30:00;100365.0;;;5.74;95.1
79118;BME280;68523;51.336;-0.846;2023-12-07T01:33:00;100355.0;;;5.74;95.4
79118;BME280;68523;51.336;-0.846;2023-12-07T01:36:00;100355.0;;;5.64;96.1
79118;BME280;68523;51.336;-0.846;2023-12-07T01:39:00;100345.0;;;5.73;95.6
79118;BME280;68523;51.336;-0.846;2023-12-07T01:42:00;100345.0;;;5.69;96.0
79118;BME280;68523;51.336;-0.846;2023-12-07T01:45:00;100335.0;;;5.75;95.4
79118;BME280;68523;51.336;-0.846;2023-12-07T01:48:00;100325.0;;;5.73;95.3
79118;BME280;68523;51.336;-0.846;2023-12-07T01:51:00;100325.0;;;5.75;95.0
79118;BME280;68523;51.336;-0.846;2023-12-07T01:54:01;100325.0;;;5.78;95.0
79118;BME280;68523;51.336;-0.846;2023-12-07T01:57:00;100325.0;;;5.86;94.8
79118;BME280;68523;51.336;-0.846;2023-12-07T02:00:00;100315.0;;;5.83;94.6
79118;BME280;68523;51.336;-0.846;2023-12-07T02:03:02;100315.0;;;5.86;94.7
79118;BME280;68523;51.336;-0.846;2023-12-07T02:06:01;100305.0;;;5.83;94.7
79118;BME280;68523;51.336;-0.846;2023-12-07T02:09:00;100295.0;;;5.89;94.6
79118;BME280;68523;51.336;-0.846;2023-12-07T02:12:00;100295.0;;;5.84;95.1
79118;BME280;68523;51.336;-0.846;2023-12-07T02:15:01;100295.0;;;5.88;95.0
79118;BME280;68523;51.336;-0.846;2023-12-07T02:18:06;100285.0;;;5.88;95.0
79118;BME280;68523;51.336;-0.846;2023-12-07T02:21:08;100275.0;;;5.93;94.9
79118;BME280;68523;51.336;-0.846;2023-12-07T02:24:02;100275.0;;;5.99;94.8
79118;BME280;68523;51.336;-0.846;2023-12-07T02:27:00;100265.0;;;5.88;95.6
79118;BME280;68523;51.336;-0.846;2023-12-07T02:30:00;100265.0;;;5.94;95.5
79118;BME280;68523;51.336;-0.846;2023-12-07T02:33:00;100265.0;;;5.93;95.9
79118;BME280;68523;51.336;-0.846;2023-12-07T02:36:00;100275.0;;;5.97;95.5
79118;BME280;68523;51.336;-0.846;2023-12-07T02:39:01;100265.0;;;5.97;95.5
79118;BME280;68523;51.336;-0.846;2023-12-07T02:42:00;100265.0;;;5.98;95.8
79118;BME280;68523;51.336;-0.846;2023-12-07T02:45:01;100265.0;;;5.92;96.4
79118;BME280;68523;51.336;-0.846;2023-12-07T02:48:01;100265.0;;;6.00;96.2
79118;BME280;68523;51.336;-0.846;2023-12-07T02:51:00;100265.0;;;5.94;96.9
79118;BME280;68523;51.336;-0.846;2023-12-07T02:54:00;100265.0;;;5.95;96.7
79118;BME280;68523;51.336;-0.846;2023-12-07T02:57:00;100255.0;;;5.91;97.2
79118;BME280;68523;51.336;-0.846;2023-12-07T03:00:00;100255.0;;;5.88;97.8
79118;BME280;68523;51.336;-0.846;2023-12-07T03:03:00;100265.0;;;5.84;98.3
79118;BME280;68523;51.336;-0.846;2023-12-07T03:06:00;100265.0;;;5.90;98.3
79118;BME280;68523;51.336;-0.846;2023-12-07T03:09:00;100255.0;;;5.85;98.5
79118;BME280;68523;51.336;-0.846;2023-12-07T03:12:00;100255.0;;;5.88;98.3
79118;BME280;68523;51.336;-0.846;2023-12-07T03:15:00;100255.0;;;5.88;98.6
79118;BME280;68523;51.336;-0.846;2023-12-07T03:18:00;100255.0;;;5.84;99.0
79118;BME280;68523;51.336;-0.846;2023-12-07T03:21:01;100245.0;;;5.85;99.1
79118;BME280;68523;51.336;-0.846;2023-12-07T03:24:00;100245.0;;;5.84;99.4
79118;BME280;68523;51.336;-0.846;2023-12-07T03:27:00;100235.0;;;5.86;99.5
79118;BME280;68523;51.336;-0.846;2023-12-07T03:30:00;100235.0;;;5.85;99.7
79118;BME280;68523;51.336;-0.846;2023-12-07T03:33:00;100225.0;;;5.82;100.2
79118;BME280;68523;51.336;-0.846;2023-12-07T03:36:00;100225.0;;;5.84;100.3
79118;BME280;68523;51.336;-0.846;2023-12-07T03:39:00;100225.0;;;5.88;100.1
79118;BME280;68523;51.336;-0.846;2023-12-07T03:42:00;100215.0;;;5.86;100.5
79118;BME280;68523;51.336;-0.846;2023-12-07T03:45:00;100215.0;;;5.85;100.8
79118;BME280;68523;51.336;-0.846;2023-12-07T03:48:00;100205.0;;;5.83;100.9
79118;BME280;68523;51.336;-0.846;2023-12-07T03:51:00;100195.0;;;5.88;101.1
79118;BME280;68523;51.336;-0.846;2023-12-07T03:54:00;100195.0;;;5.86;101.3
79118;BME280;68523;51.336;-0.846;2023-12-07T03:57:00;100195.0;;;5.94;101.0
79118;BME280;68523;51.336;-0.846;2023-12-07T04:00:00;100185.0;;;5.98;101.0
79118;BME280;68523;51.336;-0.846;2023-12-07T04:03:00;100185.0;;;6.00;101.0
79118;BME280;68523;51.336;-0.846;2023-12-07T04:06:00;100185.0;;;5.99;101.1
79118;BME280;68523;51.336;-0.846;2023-12-07T04:09:00;100185.0;;;6.04;101.2
79118;BME280;68523;51.336;-0.846;2023-12-07T04:12:00;100175.0;;;6.03;101.5
79118;BME280;68523;51.336;-0.846;2023-12-07T04:15:00;100165.0;;;6.04;101.6
79118;BME280;68523;51.336;-0.846;2023-12-07T04:18:00;100165.0;;;6.00;101.7
79118;BME280;68523;51.336;-0.846;2023-12-07T04:21:00;100165.0;;;6.07;101.7
79118;BME280;68523;51.336;-0.846;2023-12-07T04:24:00;100165.0;;;6.08;101.8
79118;BME280;68523;51.336;-0.846;2023-12-07T04:27:00;100155.0;;;6.08;101.9
79118;BME280;68523;51.336;-0.846;2023-12-07T04:30:00;100155.0;;;6.08;102.0
79118;BME280;68523;51.336;-0.846;2023-12-07T04:33:00;100145.0;;;6.12;102.0
79118;BME280;68523;51.336;-0.846;2023-12-07T04:36:00;100145.0;;;6.15;101.8
79118;BME280;68523;51.336;-0.846;2023-12-07T04:39:00;100135.0;;;6.13;101.9
79118;BME280;68523;51.336;-0.846;2023-12-07T04:42:00;100135.0;;;6.12;102.1
79118;BME280;68523;51.336;-0.846;2023-12-07T04:45:00;100125.0;;;6.15;102.1
79118;BME280;68523;51.336;-0.846;2023-12-07T04:48:00;100125.0;;;6.13;102.1
79118;BME280;68523;51.336;-0.846;2023-12-07T04:51:00;100115.0;;;6.17;101.9
79118;BME280;68523;51.336;-0.846;2023-12-07T04:54:00;100115.0;;;6.17;102.0
79118;BME280;68523;51.336;-0.846;2023-12-07T04:57:00;100105.0;;;6.19;102.2
79118;BME280;68523;51.336;-0.846;2023-12-07T05:00:01;100095.0;;;6.17;102.2
79118;BME280;68523;51.336;-0.846;2023-12-07T05:03:00;100095.0;;;6.22;102.1
79118;BME280;68523;51.336;-0.846;2023-12-07T05:06:00;100095.0;;;6.22;102.2
79118;BME280;68523;51.336;-0.846;2023-12-07T05:09:00;100095.0;;;6.22;102.2
79118;BME280;68523;51.336;-0.846;2023-12-07T05:12:00;100085.0;;;6.25;102.1
79118;BME280;68523;51.336;-0.846;2023-12-07T05:15:00;100085.0;;;6.29;102.0
79118;BME280;68523;51.336;-0.846;2023-12-07T05:18:00;100085.0;;;6.29;101.9
79118;BME280;68523;51.336;-0.846;2023-12-07T05:21:00;100085.0;;;6.31;102.0
79118;BME280;68523;51.336;-0.846;2023-12-07T05:24:00;100085.0;;;6.33;101.8
79118;BME280;68523;51.336;-0.846;2023-12-07T05:27:00;100085.0;;;6.32;101.8
79118;BME280;68523;51.336;-0.846;2023-12-07T05:30:00;100065.0;;;6.32;101.8
79118;BME280;68523;51.336;-0.846;2023-12-07T05:33:00;100055.0;;;6.37;101.6
79118;BME280;68523;51.336;-0.846;2023-12-07T05:36:00;100045.0;;;6.43;101.5
79118;BME280;68523;51.336;-0.846;2023-12-07T05:39:00;100035.0;;;6.40;101.6
79118;BME280;68523;51.336;-0.846;2023-12-07T05:42:00;100045.0;;;6.38;101.6
79118;BME280;68523;51.336;-0.846;2023-12-07T05:45:00;100045.0;;;6.39;101.7
79118;BME280;68523;51.336;-0.846;2023-12-07T05:48:00;100025.0;;;6.41;101.7
79118;BME280;68523;51.336;-0.846;2023-12-07T05:51:01;100035.0;;;6.47;101.4
79118;BME280;68523;51.336;-0.846;2023-12-07T05:54:00;100045.0;;;6.46;101.6
79118;BME280;68523;51.336;-0.846;2023-12-07T05:57:00;100045.0;;;6.43;101.9
79118;BME280;68523;51.336;-0.846;2023-12-07T06:00:00;100055.0;;;6.45;101.9
79118;BME280;68523;51.336;-0.846;2023-12-07T06:03:00;100045.0;;;6.47;101.8
79118;BME280;68523;51.336;-0.846;2023-12-07T06:06:00;100045.0;;;6.49;101.7
79118;BME280;68523;51.336;-0.846;2023-12-07T06:09:00;100035.0;;;6.61;100.7
79118;BME280;68523;51.336;-0.846;2023-12-07T06:12:00;100035.0;;;6.55;101.2
79118;BME280;68523;51.336;-0.846;2023-12-07T06:15:00;100035.0;;;6.56;101.2
79118;BME280;68523;51.336;-0.846;2023-12-07T06:18:00;100035.0;;;6.52;101.2
79118;BME280;68523;51.336;-0.846;2023-12-07T06:21:00;100025.0;;;6.53;101.2
79118;BME280;68523;51.336;-0.846;2023-12-07T06:24:00;100035.0;;;6.51;101.4
79118;BME280;68523;51.336;-0.846;2023-12-07T06:27:01;100035.0;;;6.48;101.5
79118;BME280;68523;51.336;-0.846;2023-12-07T06:30:00;100035.0;;;6.49;101.4
79118;BME280;68523;51.336;-0.846;2023-12-07T06:33:00;100035.0;;;6.51;101.4
79118;BME280;68523;51.336;-0.846;2023-12-07T06:36:00;100035.0;;;6.55;101.2
79118;BME280;68523;51.336;-0.846;2023-12-07T06:39:00;100025.0;;;6.48;101.3
79118;BME280;68523;51.336;-0.846;2023-12-07T06:42:00;100025.0;;;6.49;101.4
79118;BME280;68523;51.336;-0.846;2023-12-07T06:45:01;100015.0;;;6.50;101.4
79118;BME280;68523;51.336;-0.846;2023-12-07T06:48:00;100015.0;;;6.53;101.1
79118;BME280;68523;51.336;-0.846;2023-12-07T06:51:00;100015.0;;;6.59;100.7
79118;BME280;68523;51.336;-0.846;2023-12-07T06:54:00;100005.0;;;6.63;100.5
79118;BME280;68523;51.336;-0.846;2023-12-07T06:57:00;100005.0;;;6.65;100.5
79118;BME280;68523;51.336;-0.846;2023-12-07T07:00:00;100005.0;;;6.69;100.0
79118;BME280;68523;51.336;-0.846;2023-12-07T07:03:00;100005.0;;;6.68;100.1
79118;BME280;68523;51.336;-0.846;2023-12-07T07:06:00;100005.0;;;6.70;100.0
79118;BME280;68523;51.336;-0.846;2023-12-07T07:09:00;100005.0;;;6.72;99.8
79118;BME280;68523;51.336;-0.846;2023-12-07T07:12:00;100005.0;;;6.70;100.4
79118;BME280;68523;51.336;-0.846;2023-12-07T07:15:00;100005.0;;;6.72;99.9
79118;BME280;68523;51.336;-0.846;2023-12-07T07:18:00;99995.0;;;6.73;99.8
79118;BME280;68523;51.336;-0.846;2023-12-07T07:21:00;99995.0;;;6.72;100.0
79118;BME280;68523;51.336;-0.846;2023-12-07T07:24:00;99985.0;;;6.68;100.2
79118;BME280;68523;51.336;-0.846;2023-12-07T07:27:00;99985.0;;;6.68;100.2
79118;BME280;68523;51.336;-0.846;2023-12-07T07:30:00;99985.0;;;6.65;100.4
79118;BME280;68523;51.336;-0.846;2023-12-07T07:33:00;99985.0;;;6.64;100.6
79118;BME280;68523;51.336;-0.846;2023-12-07T07:36:00;99975.0;;;6.61;100.9
79118;BME280;68523;51.336;-0.846;2023-12-07T07:39:00;99965.0;;;6.57;101.1
79118;BME280;68523;51.336;-0.846;2023-12-07T07:42:00;99955.0;;;6.58;101.0
79118;BME280;68523;51.336;-0.846;2023-12-07T07:45:00;99945.0;;;6.55;101.0
79118;BME280;68523;51.336;-0.846;2023-12-07T07:48:00;99945.0;;;6.53;101.3
79118;BME280;68523;51.336;-0.846;2023-12-07T07:51:00;99945.0;;;6.55;101.3
79118;BME280;68523;51.336;-0.846;2023-12-07T07:54:00;99945.0;;;6.52;101.2
79118;BME280;68523;51.336;-0.846;2023-12-07T07:57:00;99945.0;;;6.53;101.1
79118;BME280;68523;51.336;-0.846;2023-12-07T08:00:00;99955.0;;;6.51;101.2
79118;BME280;68523;51.336;-0.846;2023-12-07T08:03:00;99955.0;;;6.51;101.3
79118;BME280;68523;51.336;-0.846;2023-12-07T08:06:00;99955.0;;;6.51;101.2
79118;BME280;68523;51.336;-0.846;2023-12-07T08:09:00;99945.0;;;6.51;100.7
79118;BME280;68523;51.336;-0.846;2023-12-07T08:12:00;99935.0;;;6.51;100.5
79118;BME280;68523;51.336;-0.846;2023-12-07T08:15:00;99925.0;;;6.53;100.1
79118;BME280;68523;51.336;-0.846;2023-12-07T08:18:00;99925.0;;;6.60;99.6
79118;BME280;68523;51.336;-0.846;2023-12-07T08:21:00;99925.0;;;6.60;99.7
79118;BME280;68523;51.336;-0.846;2023-12-07T08:24:00;99915.0;;;6.68;99.1
79118;BME280;68523;51.336;-0.846;2023-12-07T08:27:00;99915.0;;;6.72;98.6
79118;BME280;68523;51.336;-0.846;2023-12-07T08:30:01;99905.0;;;6.73;98.3
79118;BME280;68523;51.336;-0.846;2023-12-07T08:33:00;99905.0;;;6.78;98.3
79118;BME280;68523;51.336;-0.846;2023-12-07T08:36:00;99905.0;;;6.80;98.3
79118;BME280;68523;51.336;-0.846;2023-12-07T08:39:00;99905.0;;;6.75;98.5
79118;BME280;68523;51.336;-0.846;2023-12-07T08:42:00;99895.0;;;6.80;98.5
79118;BME280;68523;51.336;-0.846;2023-12-07T08:45:00;99885.0;;;6.86;97.7
79118;BME280;68523;51.336;-0.846;2023-12-07T08:48:00;99885.0;;;6.88;97.8
79118;BME280;68523;51.336;-0.846;2023-12-07T08:51:00;99885.0;;;6.92;97.6
79118;BME280;68523;51.336;-0.846;2023-12-07T08:54:00;99875.0;;;6.99;96.8
79118;BME280;68523;51.336;-0.846;2023-12-07T08:57:00;99865.0;;;7.03;96.7
79118;BME280;68523;51.336;-0.846;2023-12-07T09:00:00;99855.0;;;7.04;96.5
79118;BME280;68523;51.336;-0.846;2023-12-07T09:03:00;99855.0;;;6.99;96.8
79118;BME280;68523;51.336;-0.846;2023-12-07T09:06:00;99845.0;;;7.09;96.3
79118;BME280;68523;51.336;-0.846;2023-12-07T09:09:00;99835.0;;;7.11;96.3
79118;BME280;68523;51.336;-0.846;2023-12-07T09:12:00;99835.0;;;7.15;96.3
79118;BME280;68523;51.336;-0.846;2023-12-07T09:15:00;99825.0;;;7.24;95.5
79118;BME280;68523;51.336;-0.846;2023-12-07T09:18:00;99815.0;;;7.22;95.9
79118;BME280;68523;51.336;-0.846;2023-12-07T09:21:00;99805.0;;;7.26;95.6
79118;BME280;68523;51.336;-0.846;2023-12-07T09:24:00;99785.0;;;7.27;95.2
79118;BME280;68523;51.336;-0.846;2023-12-07T09:27:00;99785.0;;;7.29;95.0
79118;BME280;68523;51.336;-0.846;2023-12-07T09:30:00;99765.0;;;7.27;95.0
79118;BME280;68523;51.336;-0.846;2023-12-07T09:33:00;99765.0;;;7.30;94.8
79118;BME280;68523;51.336;-0.846;2023-12-07T09:36:00;99755.0;;;7.33;94.4
79118;BME280;68523;51.336;-0.846;2023-12-07T09:39:00;99755.0;;;7.36;94.7
79118;BME280;68523;51.336;-0.846;2023-12-07T09:42:00;99755.0;;;7.33;94.9
79118;BME280;68523;51.336;-0.846;2023-12-07T09:45:00;99745.0;;;7.37;94.0
79118;BME280;68523;51.336;-0.846;2023-12-07T09:48:00;99755.0;;;7.43;93.8
79118;BME280;68523;51.336;-0.846;2023-12-07T09:51:01;99765.0;;;7.40;94.1
79118;BME280;68523;51.336;-0.846;2023-12-07T09:54:00;99775.0;;;7.37;94.4
79118;BME280;68523;51.336;-0.846;2023-12-07T09:57:00;99775.0;;;7.38;94.0
79118;BME280;68523;51.336;-0.846;2023-12-07T10:00:00;99775.0;;;7.42;93.4
79118;BME280;68523;51.336;-0.846;2023-12-07T10:03:00;99775.0;;;7.47;93.0
79118;BME280;68523;51.336;-0.846;2023-12-07T10:06:00;99765.0;;;7.55;91.9
79118;BME280;68523;51.336;-0.846;2023-12-07T10:09:03;99765.0;;;7.53;91.5
79118;BME280;68523;51.336;-0.846;2023-12-07T10:12:02;99765.0;;;7.61;90.7
79118;BME280;68523;51.336;-0.846;2023-12-07T10:15:00;99755.0;;;7.53;91.4
79118;BME280;68523;51.336;-0.846;2023-12-07T10:18:00;99745.0;;;7.55;91.2
79118;BME280;68523;51.336;-0.846;2023-12-07T10:21:00;99745.0;;;7.55;91.0
79118;BME280;68523;51.336;-0.846;2023-12-07T10:24:00;99745.0;;;7.59;90.4
79118;BME280;68523;51.336;-0.846;2023-12-07T10:27:00;99735.0;;;7.63;90.7
79118;BME280;68523;51.336;-0.846;2023-12-07T10:30:00;99725.0;;;7.58;91.2
79118;BME280;68523;51.336;-0.846;2023-12-07T10:33:02;99725.0;;;7.69;91.0
79118;BME280;68523;51.336;-0.846;2023-12-07T10:36:03;99725.0;;;7.70;91.2
79118;BME280;68523;51.336;-0.846;2023-12-07T10:39:01;99715.0;;;7.67;91.8
79118;BME280;68523;51.336;-0.846;2023-12-07T10:42:02;99725.0;;;7.75;91.0
79118;BME280;68523;51.336;-0.846;2023-12-07T10:45:03;99725.0;;;7.74;91.1
79118;BME280;68523;51.336;-0.846;2023-12-07T10:48:03;99705.0;;;7.77;90.4
79118;BME280;68523;51.336;-0.846;2023-12-07T10:51:03;99705.0;;;7.81;91.0
79118;BME280;68523;51.336;-0.846;2023-12-07T10:54:03;99695.0;;;7.80;91.0
79118;BME280;68523;51.336;-0.846;2023-12-07T10:57:01;99695.0;;;7.78;90.2
79118;BME280;68523;51.336;-0.846;2023-12-07T11:00:01;99695.0;;;7.80;90.3
79118;BME280;68523;51.336;-0.846;2023-12-07T11:03:00;99695.0;;;7.81;90.8
79118;BME280;68523;51.336;-0.846;2023-12-07T11:06:01;99705.0;;;7.80;91.2
79118;BME280;68523;51.336;-0.846;2023-12-07T11:09:04;99685.0;;;7.81;90.4
79118;BME280;68523;51.336;-0.846;2023-12-07T11:12:04;99685.0;;;7.82;89.7
79118;BME280;68523;51.336;-0.846;2023-12-07T11:15:01;99675.0;;;7.80;89.5
79118;BME280;68523;51.336;-0.846;2023-12-07T11:18:02;99665.0;;;7.70;91.0
79118;BME280;68523;51.336;-0.846;2023-12-07T11:21:01;99665.0;;;7.77;89.3
79118;BME280;68523;51.336;-0.846;2023-12-07T11:24:00;99675.0;;;7.79;89.5
79118;BME280;68523;51.336;-0.846;2023-12-07T11:27:01;99655.0;;;7.75;89.6
79118;BME280;68523;51.336;-0.846;2023-12-07T11:30:00;99655.0;;;7.75;89.5
79118;BME280;68523;51.336;-0.846;2023-12-07T11:33:00;99645.0;;;7.66;90.1
79118;BME280;68523;51.336;-0.846;2023-12-07T11:36:03;99635.0;;;7.67;89.3
79118;BME280;68523;51.336;-0.846;2023-12-07T11:39:17;99625.0;;;7.62;90.3
79118;BME280;68523;51.336;-0.846;2023-12-07T11:42:06;99615.0;;;7.52;91.2
79118;BME280;68523;51.336;-0.846;2023-12-07T11:45:01;99615.0;;;7.41;93.1
79118;BME280;68523;51.336;-0.846;2023-12-07T11:48:11;99605.0;;;7.30;94.2
79118;BME280;68523;51.336;-0.846;2023-12-07T11:51:03;99605.0;;;7.30;93.8
79118;BME280;68523;51.336;-0.846;2023-12-07T11:54:00;99605.0;;;7.34;93.7
79118;BME280;68523;51.336;-0.846;2023-12-07T11:57:00;99595.0;;;7.37;93.8
79118;BME280;68523;51.336;-0.846;2023-12-07T12:00:01;99595.0;;;7.31;94.1
79118;BME280;68523;51.336;-0.846;2023-12-07T12:03:00;99595.0;;;7.33;93.7
79118;BME280;68523;51.336;-0.846;2023-12-07T12:06:03;99595.0;;;7.34;94.4
79118;BME280;68523;51.336;-0.846;2023-12-07T12:09:00;99585.0;;;7.30;93.9
79118;BME280;68523;51.336;-0.846;2023-12-07T12:12:00;99575.0;;;7.29;93.8
79118;BME280;68523;51.336;-0.846;2023-12-07T12:15:00;99575.0;;;7.28;93.3
79118;BME280;68523;51.336;-0.846;2023-12-07T12:18:00;99565.0;;;7.38;91.7
79118;BME280;68523;51.336;-0.846;2023-12-07T12:21:00;99565.0;;;7.37;92.4
79118;BME280;68523;51.336;-0.846;2023-12-07T12:24:00;99555.0;;;7.39;91.4
79118;BME280;68523;51.336;-0.846;2023-12-07T12:27:01;99555.0;;;7.40;91.3
79118;BME280;68523;51.336;-0.846;2023-12-07T12:30:01;99545.0;;;7.46;90.9
79118;BME280;68523;51.336;-0.846;2023-12-07T12:33:00;99545.0;;;7.39;91.3
79118;BME280;68523;51.336;-0.846;2023-12-07T12:36:02;99535.0;;;7.39;90.8
79118;BME280;68523;51.336;-0.846;2023-12-07T12:39:00;99525.0;;;7.38;90.9
79118;BME280;68523;51.336;-0.846;2023-12-07T12:42:01;99525.0;;;7.39;90.7
79118;BME280;68523;51.336;-0.846;2023-12-07T12:45:00;99515.0;;;7.31;91.0
79118;BME280;68523;51.336;-0.846;2023-12-07T12:48:00;99495.0;;;7.27;90.9
79118;BME280;68523;51.336;-0.846;2023-12-07T12:51:07;99475.0;;;7.31;90.7
79118;BME280;68523;51.336;-0.846;2023-12-07T12:54:00;99475.0;;;7.27;91.6
79118;BME280;68523;51.336;-0.846;2023-12-07T12:57:00;99465.0;;;7.24;91.5
79118;BME280;68523;51.336;-0.846;2023-12-07T13:00:00;99465.0;;;7.19;91.3
79118;BME280;68523;51.336;-0.846;2023-12-07T13:03:02;99455.0;;;7.15;92.4
79118;BME280;68523;51.336;-0.846;2023-12-07T13:06:00;99455.0;;;7.03;93.1
79118;BME280;68523;51.336;-0.846;2023-12-07T13:09:00;99445.0;;;6.92;93.9
79118;BME280;68523;51.336;-0.846;2023-12-07T13:12:00;99445.0;;;6.85;94.3
79118;BME280;68523;51.336;-0.846;2023-12-07T13:15:00;99435.0;;;6.80;94.8
79118;BME280;68523;51.336;-0.846;2023-12-07T13:18:00;99435.0;;;6.80;95.2
79118;BME280;68523;51.336;-0.846;2023-12-07T13:21:00;99435.0;;;6.72;95.8
79118;BME280;68523;51.336;-0.846;2023-12-07T13:24:00;99435.0;;;6.68;96.4
79118;BME280;68523;51.336;-0.846;2023-12-07T13:27:00;99425.0;;;6.68;95.6
79118;BME280;68523;51.336;-0.846;2023-12-07T13:30:01;99415.0;;;6.63;95.0
79118;BME280;68523;51.336;-0.846;2023-12-07T13:33:00;99405.0;;;6.63;95.4
79118;BME280;68523;51.336;-0.846;2023-12-07T13:36:00;99395.0;;;6.62;95.2
79118;BME280;68523;51.336;-0.846;2023-12-07T13:39:00;99385.0;;;6.59;95.1
79118;BME280;68523;51.336;-0.846;2023-12-07T13:42:00;99365.0;;;6.58;96.1
79118;BME280;68523;51.336;-0.846;2023-12-07T13:45:01;99355.0;;;6.57;95.7
79118;BME280;68523;51.336;-0.846;2023-12-07T13:48:00;99345.0;;;6.55;96.1
79118;BME280;68523;51.336;-0.846;2023-12-07T13:51:00;99345.0;;;6.55;95.8
79118;BME280;68523;51.336;-0.846;2023-12-07T13:54:00;99345.0;;;6.48;96.0
79118;BME280;68523;51.336;-0.846;2023-12-07T13:57:00;99345.0;;;6.52;96.2
79118;BME280;68523;51.336;-0.846;2023-12-07T14:00:00;99345.0;;;6.52;96.6
79118;BME280;68523;51.336;-0.846;2023-12-07T14:03:00;99345.0;;;6.49;96.3
79118;BME280;68523;51.336;-0.846;2023-12-07T14:06:00;99335.0;;;6.44;96.9
79118;BME280;68523;51.336;-0.846;2023-12-07T14:09:00;99345.0;;;6.41;97.7
79118;BME280;68523;51.336;-0.846;2023-12-07T14:12:00;99345.0;;;6.41;97.7
79118;BME280;68523;51.336;-0.846;2023-12-07T14:15:00;99325.0;;;6.37;98.0
79118;BME280;68523;51.336;-0.846;2023-12-07T14:18:00;99335.0;;;6.34;98.6
79118;BME280;68523;51.336;-0.846;2023-12-07T14:21:00;99325.0;;;6.33;98.7
79118;BME280;68523;51.336;-0.846;2023-12-07T14:24:00;99315.0;;;6.28;99.0
79118;BME280;68523;51.336;-0.846;2023-12-07T14:27:00;99305.0;;;6.29;98.9
79118;BME280;68523;51.336;-0.846;2023-12-07T14:30:00;99295.0;;;6.23;99.7
79118;BME280;68523;51.336;-0.846;2023-12-07T14:33:00;99285.0;;;6.22;99.6
79118;BME280;68523;51.336;-0.846;2023-12-07T14:36:00;99275.0;;;6.21;100.1
79118;BME280;68523;51.336;-0.846;2023-12-07T14:39:00;99265.0;;;6.18;100.1
79118;BME280;68523;51.336;-0.846;2023-12-07T14:42:00;99255.0;;;6.18;100.4
79118;BME280;68523;51.336;-0.846;2023-12-07T14:45:00;99255.0;;;6.15;100.7
79118;BME280;68523;51.336;-0.846;2023-12-07T14:48:00;99245.0;;;6.16;100.5
79118;BME280;68523;51.336;-0.846;2023-12-07T14:51:00;99235.0;;;6.17;100.8
79118;BME280;68523;51.336;-0.846;2023-12-07T14:54:00;99235.0;;;6.14;100.6
79118;BME280;68523;51.336;-0.846;2023-12-07T14:57:00;99225.0;;;6.15;100.8
79118;BME280;68523;51.336;-0.846;2023-12-07T15:00:00;99205.0;;;6.13;100.9
79118;BME280;68523;51.336;-0.846;2023-12-07T15:03:00;99195.0;;;6.16;101.0
79118;BME280;68523;51.336;-0.846;2023-12-07T15:06:00;99185.0;;;6.13;101.0
79118;BME280;68523;51.336;-0.846;2023-12-07T15:09:01;99165.0;;;6.12;101.0
79118;BME280;68523;51.336;-0.846;2023-12-07T15:12:00;99165.0;;;6.11;100.7
79118;BME280;68523;51.336;-0.846;2023-12-07T15:15:00;99165.0;;;6.11;100.8
79118;BME280;68523;51.336;-0.846;2023-12-07T15:18:00;99155.0;;;6.08;100.9
79118;BME280;68523;51.336;-0.846;2023-12-07T15:21:00;99155.0;;;6.08;101.0
79118;BME280;68523;51.336;-0.846;2023-12-07T15:24:00;99135.0;;;6.09;100.4
79118;BME280;68523;51.336;-0.846;2023-12-07T15:27:00;99115.0;;;6.05;100.8
79118;BME280;68523;51.336;-0.846;2023-12-07T15:30:00;99105.0;;;6.09;100.9
79118;BME280;68523;51.336;-0.846;2023-12-07T15:33:00;99095.0;;;6.11;101.0
79118;BME280;68523;51.336;-0.846;2023-12-07T15:36:03;99095.0;;;6.08;101.0
79118;BME280;68523;51.336;-0.846;2023-12-07T15:39:00;99095.0;;;6.09;101.0
79118;BME280;68523;51.336;-0.846;2023-12-07T15:42:00;99105.0;;;6.09;101.0
79118;BME280;68523;51.336;-0.846;2023-12-07T15:45:00;99105.0;;;6.12;101.1
79118;BME280;68523;51.336;-0.846;2023-12-07T15:48:00;99115.0;;;6.14;101.0
79118;BME280;68523;51.336;-0.846;2023-12-07T15:51:00;99115.0;;;6.12;101.0
79118;BME280;68523;51.336;-0.846;2023-12-07T15:54:00;99105.0;;;6.11;101.2
79118;BME280;68523;51.336;-0.846;2023-12-07T15:57:00;99105.0;;;6.14;100.8
79118;BME280;68523;51.336;-0.846;2023-12-07T16:00:00;99105.0;;;6.14;100.9
79118;BME280;68523;51.336;-0.846;2023-12-07T16:03:01;99105.0;;;6.13;101.1
79118;BME280;68523;51.336;-0.846;2023-12-07T16:06:00;99105.0;;;6.09;101.5